sensor_id;sensor_type;location;lat;lon;timestamp;temperature;humidity
19941;DHT22;10132;50.864;5.176;2024-03-25T00:00:18;4.60;99.90
19941;DHT22;10132;50.864;5.176;2024-03-25T00:02:21;4.70;99.90
19941;DHT22;10132;50.864;5.176;2024-03-25T00:04:22;4.60;99.90
19941;DHT22;10132;50.864;5.176;2024-03-25T00:06:24;4.70;99.90
19941;DHT22;10132;50.864;5.176;2024-03-25T00:08:26;4.70;99.90
19941;DHT22;10132;50.864;5.176;2024-03-25T00:10:28;4.70;99.90
19941;DHT22;10132;50.864;5.176;2024-03-25T00:12:29;4.70;99.90
19941;DHT22;10132;50.864;5.176;2024-03-25T00:14:30;4.60;99.90
19941;DHT22;10132;50.864;5.176;2024-03-25T00:16:32;4.70;99.90
19941;DHT22;10132;50.864;5.176;2024-03-25T00:18:33;4.70;99.90
19941;DHT22;10132;50.864;5.176;2024-03-25T00:20:35;4.70;99.90
19941;DHT22;10132;50.864;5.176;2024-03-25T00:22:36;4.60;99.90
19941;DHT22;10132;50.864;5.176;2024-03-25T00:24:39;4.60;99.90
19941;DHT22;10132;50.864;5.176;2024-03-25T00:26:40;4.60;99.90
19941;DHT22;10132;50.864;5.176;2024-03-25T00:28:42;4.60;99.90
19941;DHT22;10132;50.864;5.176;2024-03-25T00:30:44;4.60;99.90
19941;DHT22;10132;50.864;5.176;2024-03-25T00:32:46;4.60;99.90
19941;DHT22;10132;50.864;5.176;2024-03-25T00:34:47;4.60;99.90
19941;DHT22;10132;50.864;5.176;2024-03-25T00:36:48;4.50;99.90
19941;DHT22;10132;50.864;5.176;2024-03-25T00:38:50;4.60;99.90
19941;DHT22;10132;50.864;5.176;2024-03-25T00:40:53;4.60;99.90
19941;DHT22;10132;50.864;5.176;2024-03-25T00:42:54;4.50;99.90
19941;DHT22;10132;50.864;5.176;2024-03-25T00:44:56;4.50;99.90
19941;DHT22;10132;50.864;5.176;2024-03-25T00:46:56;4.50;99.90
19941;DHT22;10132;50.864;5.176;2024-03-25T00:48:58;4.50;99.90
19941;DHT22;10132;50.864;5.176;2024-03-25T00:50:59;4.50;99.90
19941;DHT22;10132;50.864;5.176;2024-03-25T00:53:01;4.50;99.90
19941;DHT22;10132;50.864;5.176;2024-03-25T00:55:03;4.50;99.90
19941;DHT22;10132;50.864;5.176;2024-03-25T00:57:07;4.50;99.90
19941;DHT22;10132;50.864;5.176;2024-03-25T00:59:08;4.40;99.90
19941;DHT22;10132;50.864;5.176;2024-03-25T01:01:10;4.40;99.90
19941;DHT22;10132;50.864;5.176;2024-03-25T01:03:12;4.40;99.90
19941;DHT22;10132;50.864;5.176;2024-03-25T01:05:14;4.30;99.90
19941;DHT22;10132;50.864;5.176;2024-03-25T01:07:15;4.30;99.90
19941;DHT22;10132;50.864;5.176;2024-03-25T01:09:17;4.20;99.90
19941;DHT22;10132;50.864;5.176;2024-03-25T01:11:19;4.10;99.90
19941;DHT22;10132;50.864;5.176;2024-03-25T01:13:23;4.20;99.90
19941;DHT22;10132;50.864;5.176;2024-03-25T01:15:24;4.20;99.90
19941;DHT22;10132;50.864;5.176;2024-03-25T01:17:26;4.30;99.90
19941;DHT22;10132;50.864;5.176;2024-03-25T01:19:27;4.30;99.90
19941;DHT22;10132;50.864;5.176;2024-03-25T01:21:29;4.20;99.90
19941;DHT22;10132;50.864;5.176;2024-03-25T01:23:30;4.30;99.90
19941;DHT22;10132;50.864;5.176;2024-03-25T01:25:32;4.30;99.90
19941;DHT22;10132;50.864;5.176;2024-03-25T01:27:33;4.20;99.90
19941;DHT22;10132;50.864;5.176;2024-03-25T01:29:37;4.10;99.90
19941;DHT22;10132;50.864;5.176;2024-03-25T01:31:37;4.20;99.90
19941;DHT22;10132;50.864;5.176;2024-03-25T01:33:39;4.10;99.90
19941;DHT22;10132;50.864;5.176;2024-03-25T01:35:41;4.20;99.90
19941;DHT22;10132;50.864;5.176;2024-03-25T01:37:43;4.20;99.90
19941;DHT22;10132;50.864;5.176;2024-03-25T01:39:43;4.10;99.90
19941;DHT22;10132;50.864;5.176;2024-03-25T01:41:45;4.10;99.90
19941;DHT22;10132;50.864;5.176;2024-03-25T01:43:46;4.10;99.90
19941;DHT22;10132;50.864;5.176;2024-03-25T01:45:51;4.20;99.90
19941;DHT22;10132;50.864;5.176;2024-03-25T01:47:54;4.20;99.90
19941;DHT22;10132;50.864;5.176;2024-03-25T01:49:57;4.20;99.90
19941;DHT22;10132;50.864;5.176;2024-03-25T01:51:58;4.10;99.90
19941;DHT22;10132;50.864;5.176;2024-03-25T01:54:01;4.20;99.90
19941;DHT22;10132;50.864;5.176;2024-03-25T01:56:04;4.20;99.90
19941;DHT22;10132;50.864;5.176;2024-03-25T01:58:06;4.20;99.90
19941;DHT22;10132;50.864;5.176;2024-03-25T02:00:08;4.20;99.90
19941;DHT22;10132;50.864;5.176;2024-03-25T02:02:12;4.30;99.90
19941;DHT22;10132;50.864;5.176;2024-03-25T02:04:13;4.30;99.90
19941;DHT22;10132;50.864;5.176;2024-03-25T02:06:17;4.20;99.90
19941;DHT22;10132;50.864;5.176;2024-03-25T02:08:19;4.30;99.90
19941;DHT22;10132;50.864;5.176;2024-03-25T02:10:21;4.30;99.90
19941;DHT22;10132;50.864;5.176;2024-03-25T02:12:23;4.20;99.90
19941;DHT22;10132;50.864;5.176;2024-03-25T02:14:25;4.20;99.90
19941;DHT22;10132;50.864;5.176;2024-03-25T02:16:26;4.10;99.90
19941;DHT22;10132;50.864;5.176;2024-03-25T02:18:29;4.00;99.90
19941;DHT22;10132;50.864;5.176;2024-03-25T02:20:31;3.90;99.90
19941;DHT22;10132;50.864;5.176;2024-03-25T02:22:33;3.90;99.90
19941;DHT22;10132;50.864;5.176;2024-03-25T02:24:36;3.90;99.90
19941;DHT22;10132;50.864;5.176;2024-03-25T02:26:40;3.80;99.90
19941;DHT22;10132;50.864;5.176;2024-03-25T02:28:41;3.60;99.90
19941;DHT22;10132;50.864;5.176;2024-03-25T02:30:43;3.40;99.90
19941;DHT22;10132;50.864;5.176;2024-03-25T02:32:44;3.30;99.90
19941;DHT22;10132;50.864;5.176;2024-03-25T02:34:51;3.10;99.90
19941;DHT22;10132;50.864;5.176;2024-03-25T02:36:52;3.00;99.90
19941;DHT22;10132;50.864;5.176;2024-03-25T02:38:55;2.90;99.90
19941;DHT22;10132;50.864;5.176;2024-03-25T02:40:56;2.80;99.90
19941;DHT22;10132;50.864;5.176;2024-03-25T02:42:59;2.80;99.90
19941;DHT22;10132;50.864;5.176;2024-03-25T02:45:00;2.90;99.90
19941;DHT22;10132;50.864;5.176;2024-03-25T02:47:03;3.10;99.90
19941;DHT22;10132;50.864;5.176;2024-03-25T02:49:04;3.10;99.90
19941;DHT22;10132;50.864;5.176;2024-03-25T02:51:06;3.10;99.90
19941;DHT22;10132;50.864;5.176;2024-03-25T02:53:07;3.00;99.90
19941;DHT22;10132;50.864;5.176;2024-03-25T02:55:09;2.80;99.90
19941;DHT22;10132;50.864;5.176;2024-03-25T02:57:10;2.70;99.90
19941;DHT22;10132;50.864;5.176;2024-03-25T02:59:12;2.60;99.90
19941;DHT22;10132;50.864;5.176;2024-03-25T03:01:16;2.70;99.90
19941;DHT22;10132;50.864;5.176;2024-03-25T03:03:17;2.70;99.90
19941;DHT22;10132;50.864;5.176;2024-03-25T03:05:19;2.70;99.90
19941;DHT22;10132;50.864;5.176;2024-03-25T03:07:20;2.60;99.90
19941;DHT22;10132;50.864;5.176;2024-03-25T03:09:22;2.60;99.90
19941;DHT22;10132;50.864;5.176;2024-03-25T03:11:23;2.50;99.90
19941;DHT22;10132;50.864;5.176;2024-03-25T03:13:25;2.50;99.90
19941;DHT22;10132;50.864;5.176;2024-03-25T03:15:27;2.40;99.90
19941;DHT22;10132;50.864;5.176;2024-03-25T03:17:29;2.50;99.90
19941;DHT22;10132;50.864;5.176;2024-03-25T03:19:31;2.50;99.90
19941;DHT22;10132;50.864;5.176;2024-03-25T03:21:33;2.50;99.90
19941;DHT22;10132;50.864;5.176;2024-03-25T03:23:34;2.50;99.90
19941;DHT22;10132;50.864;5.176;2024-03-25T03:25:36;2.30;99.90
19941;DHT22;10132;50.864;5.176;2024-03-25T03:27:37;2.20;99.90
19941;DHT22;10132;50.864;5.176;2024-03-25T03:29:38;2.10;99.90
19941;DHT22;10132;50.864;5.176;2024-03-25T03:31:41;2.10;99.90
19941;DHT22;10132;50.864;5.176;2024-03-25T03:33:43;2.30;99.90
19941;DHT22;10132;50.864;5.176;2024-03-25T03:35:44;2.40;99.90
19941;DHT22;10132;50.864;5.176;2024-03-25T03:37:46;2.50;99.90
19941;DHT22;10132;50.864;5.176;2024-03-25T03:39:47;2.60;99.90
19941;DHT22;10132;50.864;5.176;2024-03-25T03:41:49;2.70;99.90
19941;DHT22;10132;50.864;5.176;2024-03-25T03:43:50;2.70;99.90
19941;DHT22;10132;50.864;5.176;2024-03-25T03:45:52;2.80;99.90
19941;DHT22;10132;50.864;5.176;2024-03-25T03:47:54;2.60;99.90
19941;DHT22;10132;50.864;5.176;2024-03-25T03:49:55;2.40;99.90
19941;DHT22;10132;50.864;5.176;2024-03-25T03:51:57;2.40;99.90
19941;DHT22;10132;50.864;5.176;2024-03-25T03:53:58;2.40;99.90
19941;DHT22;10132;50.864;5.176;2024-03-25T03:56:01;2.50;99.90
19941;DHT22;10132;50.864;5.176;2024-03-25T03:58:03;2.40;99.90
19941;DHT22;10132;50.864;5.176;2024-03-25T04:00:06;2.40;99.90
19941;DHT22;10132;50.864;5.176;2024-03-25T04:02:08;2.40;99.90
19941;DHT22;10132;50.864;5.176;2024-03-25T04:04:12;2.30;99.90
19941;DHT22;10132;50.864;5.176;2024-03-25T04:06:13;2.40;99.90
19941;DHT22;10132;50.864;5.176;2024-03-25T04:08:15;2.50;99.90
19941;DHT22;10132;50.864;5.176;2024-03-25T04:10:16;2.30;99.90
19941;DHT22;10132;50.864;5.176;2024-03-25T04:12:17;2.10;99.90
19941;DHT22;10132;50.864;5.176;2024-03-25T04:14:20;2.10;99.90
19941;DHT22;10132;50.864;5.176;2024-03-25T04:16:21;1.90;99.90
19941;DHT22;10132;50.864;5.176;2024-03-25T04:18:23;1.90;99.90
19941;DHT22;10132;50.864;5.176;2024-03-25T04:20:26;1.80;99.90
19941;DHT22;10132;50.864;5.176;2024-03-25T04:22:28;1.90;99.90
19941;DHT22;10132;50.864;5.176;2024-03-25T04:24:29;1.90;99.90
19941;DHT22;10132;50.864;5.176;2024-03-25T04:26:31;2.00;99.90
19941;DHT22;10132;50.864;5.176;2024-03-25T04:28:32;2.30;99.90
19941;DHT22;10132;50.864;5.176;2024-03-25T04:30:34;2.30;99.90
19941;DHT22;10132;50.864;5.176;2024-03-25T04:32:35;2.40;99.90
19941;DHT22;10132;50.864;5.176;2024-03-25T04:34:37;2.40;99.90
19941;DHT22;10132;50.864;5.176;2024-03-25T04:36:40;2.40;99.90
19941;DHT22;10132;50.864;5.176;2024-03-25T04:38:41;2.40;99.90
19941;DHT22;10132;50.864;5.176;2024-03-25T04:40:42;2.20;99.90
19941;DHT22;10132;50.864;5.176;2024-03-25T04:42:44;2.10;99.90
19941;DHT22;10132;50.864;5.176;2024-03-25T04:44:45;1.90;99.90
19941;DHT22;10132;50.864;5.176;2024-03-25T04:46:46;1.90;99.90
19941;DHT22;10132;50.864;5.176;2024-03-25T04:48:47;2.10;99.90
19941;DHT22;10132;50.864;5.176;2024-03-25T04:50:48;2.30;99.90
19941;DHT22;10132;50.864;5.176;2024-03-25T04:52:51;2.40;99.90
19941;DHT22;10132;50.864;5.176;2024-03-25T04:54:51;2.50;99.90
19941;DHT22;10132;50.864;5.176;2024-03-25T04:56:53;2.50;99.90
19941;DHT22;10132;50.864;5.176;2024-03-25T04:58:54;2.50;99.90
19941;DHT22;10132;50.864;5.176;2024-03-25T05:00:55;2.60;99.90
19941;DHT22;10132;50.864;5.176;2024-03-25T05:02:55;2.70;99.90
19941;DHT22;10132;50.864;5.176;2024-03-25T05:04:56;2.80;99.90
19941;DHT22;10132;50.864;5.176;2024-03-25T05:06:58;2.80;99.90
19941;DHT22;10132;50.864;5.176;2024-03-25T05:09:00;2.80;99.90
19941;DHT22;10132;50.864;5.176;2024-03-25T05:11:01;2.90;99.90
19941;DHT22;10132;50.864;5.176;2024-03-25T05:13:02;3.00;99.90
19941;DHT22;10132;50.864;5.176;2024-03-25T05:15:04;3.00;99.90
19941;DHT22;10132;50.864;5.176;2024-03-25T05:17:05;3.10;99.90
19941;DHT22;10132;50.864;5.176;2024-03-25T05:19:06;3.10;99.90
19941;DHT22;10132;50.864;5.176;2024-03-25T05:21:07;3.10;99.90
19941;DHT22;10132;50.864;5.176;2024-03-25T05:23:08;3.10;99.90
19941;DHT22;10132;50.864;5.176;2024-03-25T05:25:10;3.10;99.90
19941;DHT22;10132;50.864;5.176;2024-03-25T05:27:11;3.10;99.90
19941;DHT22;10132;50.864;5.176;2024-03-25T05:29:12;3.10;99.90
19941;DHT22;10132;50.864;5.176;2024-03-25T05:31:13;3.10;99.90
19941;DHT22;10132;50.864;5.176;2024-03-25T05:33:14;3.10;99.90
19941;DHT22;10132;50.864;5.176;2024-03-25T05:35:15;3.10;99.90
19941;DHT22;10132;50.864;5.176;2024-03-25T05:37:16;3.00;99.90
19941;DHT22;10132;50.864;5.176;2024-03-25T05:39:17;3.00;99.90
19941;DHT22;10132;50.864;5.176;2024-03-25T05:41:20;2.90;99.90
19941;DHT22;10132;50.864;5.176;2024-03-25T05:43:21;2.80;99.90
19941;DHT22;10132;50.864;5.176;2024-03-25T05:45:22;2.70;99.90
19941;DHT22;10132;50.864;5.176;2024-03-25T05:47:23;2.70;99.90
19941;DHT22;10132;50.864;5.176;2024-03-25T05:49:24;2.80;99.90
19941;DHT22;10132;50.864;5.176;2024-03-25T05:51:25;2.90;99.90
19941;DHT22;10132;50.864;5.176;2024-03-25T05:53:26;3.10;99.90
19941;DHT22;10132;50.864;5.176;2024-03-25T05:55:27;3.20;99.90
19941;DHT22;10132;50.864;5.176;2024-03-25T05:57:30;3.20;99.90
19941;DHT22;10132;50.864;5.176;2024-03-25T05:59:31;3.30;99.90
19941;DHT22;10132;50.864;5.176;2024-03-25T06:01:32;3.30;99.90
19941;DHT22;10132;50.864;5.176;2024-03-25T06:03:33;3.40;99.90
19941;DHT22;10132;50.864;5.176;2024-03-25T06:05:34;3.50;99.90
19941;DHT22;10132;50.864;5.176;2024-03-25T06:07:35;3.50;99.90
19941;DHT22;10132;50.864;5.176;2024-03-25T06:09:36;3.50;99.90
19941;DHT22;10132;50.864;5.176;2024-03-25T06:11:37;3.60;99.90
19941;DHT22;10132;50.864;5.176;2024-03-25T06:13:39;3.60;99.90
19941;DHT22;10132;50.864;5.176;2024-03-25T06:15:40;3.70;99.90
19941;DHT22;10132;50.864;5.176;2024-03-25T06:17:41;3.90;99.90
19941;DHT22;10132;50.864;5.176;2024-03-25T06:19:42;4.00;99.90
19941;DHT22;10132;50.864;5.176;2024-03-25T06:21:43;4.10;99.90
19941;DHT22;10132;50.864;5.176;2024-03-25T06:23:44;4.20;99.90
19941;DHT22;10132;50.864;5.176;2024-03-25T06:25:45;4.30;99.90
19941;DHT22;10132;50.864;5.176;2024-03-25T06:27:46;4.50;99.90
19941;DHT22;10132;50.864;5.176;2024-03-25T06:29:48;4.60;99.90
19941;DHT22;10132;50.864;5.176;2024-03-25T06:31:49;4.70;99.90
19941;DHT22;10132;50.864;5.176;2024-03-25T06:34:08;4.70;99.90
19941;DHT22;10132;50.864;5.176;2024-03-25T06:36:15;4.80;99.90
19941;DHT22;10132;50.864;5.176;2024-03-25T06:38:16;4.90;99.90
19941;DHT22;10132;50.864;5.176;2024-03-25T06:40:17;5.00;99.90
19941;DHT22;10132;50.864;5.176;2024-03-25T06:42:18;5.00;99.90
19941;DHT22;10132;50.864;5.176;2024-03-25T06:44:19;5.20;99.90
19941;DHT22;10132;50.864;5.176;2024-03-25T06:46:21;5.20;99.90
19941;DHT22;10132;50.864;5.176;2024-03-25T06:48:22;5.30;99.90
19941;DHT22;10132;50.864;5.176;2024-03-25T06:50:23;5.40;99.90
19941;DHT22;10132;50.864;5.176;2024-03-25T06:52:24;5.40;99.90
19941;DHT22;10132;50.864;5.176;2024-03-25T06:54:25;5.40;99.90
19941;DHT22;10132;50.864;5.176;2024-03-25T06:56:26;5.40;99.90
19941;DHT22;10132;50.864;5.176;2024-03-25T06:58:28;5.50;99.90
19941;DHT22;10132;50.864;5.176;2024-03-25T07:00:29;5.60;99.90
19941;DHT22;10132;50.864;5.176;2024-03-25T07:02:31;5.70;99.90
19941;DHT22;10132;50.864;5.176;2024-03-25T07:04:32;5.80;99.90
19941;DHT22;10132;50.864;5.176;2024-03-25T07:06:33;5.90;99.90
19941;DHT22;10132;50.864;5.176;2024-03-25T07:08:34;6.00;99.90
19941;DHT22;10132;50.864;5.176;2024-03-25T07:10:35;5.90;99.90
19941;DHT22;10132;50.864;5.176;2024-03-25T07:12:36;5.90;99.90
19941;DHT22;10132;50.864;5.176;2024-03-25T07:14:37;6.00;99.90
19941;DHT22;10132;50.864;5.176;2024-03-25T07:16:38;6.10;99.90
19941;DHT22;10132;50.864;5.176;2024-03-25T07:18:40;6.10;99.90
19941;DHT22;10132;50.864;5.176;2024-03-25T07:20:42;6.20;99.90
19941;DHT22;10132;50.864;5.176;2024-03-25T07:22:43;6.30;99.90
19941;DHT22;10132;50.864;5.176;2024-03-25T07:24:44;6.40;99.90
19941;DHT22;10132;50.864;5.176;2024-03-25T07:26:46;6.40;99.90
19941;DHT22;10132;50.864;5.176;2024-03-25T07:28:47;6.50;99.90
19941;DHT22;10132;50.864;5.176;2024-03-25T07:30:50;6.50;99.90
19941;DHT22;10132;50.864;5.176;2024-03-25T07:32:51;6.60;99.90
19941;DHT22;10132;50.864;5.176;2024-03-25T07:34:53;6.70;99.90
19941;DHT22;10132;50.864;5.176;2024-03-25T07:36:54;6.70;99.90
19941;DHT22;10132;50.864;5.176;2024-03-25T07:38:55;6.80;99.90
19941;DHT22;10132;50.864;5.176;2024-03-25T07:40:56;6.80;99.90
19941;DHT22;10132;50.864;5.176;2024-03-25T07:42:57;6.90;99.90
19941;DHT22;10132;50.864;5.176;2024-03-25T07:44:58;6.80;99.90
19941;DHT22;10132;50.864;5.176;2024-03-25T07:46:59;7.00;99.90
19941;DHT22;10132;50.864;5.176;2024-03-25T07:49:00;7.20;99.90
19941;DHT22;10132;50.864;5.176;2024-03-25T07:51:02;7.50;99.90
19941;DHT22;10132;50.864;5.176;2024-03-25T07:53:04;7.70;99.90
19941;DHT22;10132;50.864;5.176;2024-03-25T07:55:05;7.90;99.90
19941;DHT22;10132;50.864;5.176;2024-03-25T07:57:06;8.30;99.90
19941;DHT22;10132;50.864;5.176;2024-03-25T07:59:07;8.50;99.90
19941;DHT22;10132;50.864;5.176;2024-03-25T08:01:08;8.60;99.90
19941;DHT22;10132;50.864;5.176;2024-03-25T08:03:09;8.40;99.90
19941;DHT22;10132;50.864;5.176;2024-03-25T08:05:10;8.60;99.90
19941;DHT22;10132;50.864;5.176;2024-03-25T08:07:13;8.80;99.90
19941;DHT22;10132;50.864;5.176;2024-03-25T08:09:14;8.50;99.90
19941;DHT22;10132;50.864;5.176;2024-03-25T08:11:15;8.50;99.90
19941;DHT22;10132;50.864;5.176;2024-03-25T08:13:16;8.80;99.90
19941;DHT22;10132;50.864;5.176;2024-03-25T08:15:17;8.80;99.90
19941;DHT22;10132;50.864;5.176;2024-03-25T08:17:18;8.90;99.90
19941;DHT22;10132;50.864;5.176;2024-03-25T08:19:19;8.80;99.90
19941;DHT22;10132;50.864;5.176;2024-03-25T08:21:20;9.00;99.90
19941;DHT22;10132;50.864;5.176;2024-03-25T08:23:22;8.90;99.90
19941;DHT22;10132;50.864;5.176;2024-03-25T08:25:23;9.00;99.90
19941;DHT22;10132;50.864;5.176;2024-03-25T08:27:24;9.00;99.90
19941;DHT22;10132;50.864;5.176;2024-03-25T08:29:25;8.90;99.90
19941;DHT22;10132;50.864;5.176;2024-03-25T08:31:26;8.70;99.90
19941;DHT22;10132;50.864;5.176;2024-03-25T08:33:27;8.70;99.90
19941;DHT22;10132;50.864;5.176;2024-03-25T08:35:29;8.40;99.90
19941;DHT22;10132;50.864;5.176;2024-03-25T08:37:30;8.50;99.90
19941;DHT22;10132;50.864;5.176;2024-03-25T08:39:32;8.60;99.90
19941;DHT22;10132;50.864;5.176;2024-03-25T08:41:33;8.70;99.90
19941;DHT22;10132;50.864;5.176;2024-03-25T08:43:34;8.50;99.90
19941;DHT22;10132;50.864;5.176;2024-03-25T08:45:35;8.60;99.90
19941;DHT22;10132;50.864;5.176;2024-03-25T08:47:36;8.60;99.90
19941;DHT22;10132;50.864;5.176;2024-03-25T08:49:37;9.00;99.90
19941;DHT22;10132;50.864;5.176;2024-03-25T08:51:38;9.10;99.90
19941;DHT22;10132;50.864;5.176;2024-03-25T08:53:39;8.90;99.90
19941;DHT22;10132;50.864;5.176;2024-03-25T08:55:45;9.40;99.90
19941;DHT22;10132;50.864;5.176;2024-03-25T08:57:46;9.60;99.90
19941;DHT22;10132;50.864;5.176;2024-03-25T08:59:47;9.60;99.90
19941;DHT22;10132;50.864;5.176;2024-03-25T09:01:48;9.80;99.90
19941;DHT22;10132;50.864;5.176;2024-03-25T09:03:49;9.80;99.90
19941;DHT22;10132;50.864;5.176;2024-03-25T09:05:50;10.00;99.90
19941;DHT22;10132;50.864;5.176;2024-03-25T09:07:51;10.00;99.90
19941;DHT22;10132;50.864;5.176;2024-03-25T09:09:52;10.00;99.90
19941;DHT22;10132;50.864;5.176;2024-03-25T09:12:13;10.10;99.90
19941;DHT22;10132;50.864;5.176;2024-03-25T09:14:14;10.30;99.90
19941;DHT22;10132;50.864;5.176;2024-03-25T09:16:15;10.60;99.90
19941;DHT22;10132;50.864;5.176;2024-03-25T09:18:16;10.20;99.90
19941;DHT22;10132;50.864;5.176;2024-03-25T09:20:17;10.10;99.90
19941;DHT22;10132;50.864;5.176;2024-03-25T09:22:18;10.20;99.90
19941;DHT22;10132;50.864;5.176;2024-03-25T09:24:19;10.60;99.90
19941;DHT22;10132;50.864;5.176;2024-03-25T09:26:20;10.80;99.90
19941;DHT22;10132;50.864;5.176;2024-03-25T09:28:23;11.00;99.90
19941;DHT22;10132;50.864;5.176;2024-03-25T09:30:23;11.00;99.90
19941;DHT22;10132;50.864;5.176;2024-03-25T09:32:25;11.30;99.90
19941;DHT22;10132;50.864;5.176;2024-03-25T09:34:26;11.30;99.90
19941;DHT22;10132;50.864;5.176;2024-03-25T09:36:26;11.20;99.90
19941;DHT22;10132;50.864;5.176;2024-03-25T09:38:27;11.10;99.90
19941;DHT22;10132;50.864;5.176;2024-03-25T09:40:29;11.30;99.90
19941;DHT22;10132;50.864;5.176;2024-03-25T09:42:34;11.50;99.90
19941;DHT22;10132;50.864;5.176;2024-03-25T09:44:36;11.70;99.90
19941;DHT22;10132;50.864;5.176;2024-03-25T09:46:37;11.90;99.90
19941;DHT22;10132;50.864;5.176;2024-03-25T09:48:39;11.90;99.90
19941;DHT22;10132;50.864;5.176;2024-03-25T09:50:42;11.80;99.90
19941;DHT22;10132;50.864;5.176;2024-03-25T09:52:43;11.80;99.90
19941;DHT22;10132;50.864;5.176;2024-03-25T09:54:44;12.00;99.90
19941;DHT22;10132;50.864;5.176;2024-03-25T09:56:46;12.20;99.90
19941;DHT22;10132;50.864;5.176;2024-03-25T09:58:48;12.40;99.90
19941;DHT22;10132;50.864;5.176;2024-03-25T10:00:51;12.30;99.90
19941;DHT22;10132;50.864;5.176;2024-03-25T10:02:52;12.00;99.90
19941;DHT22;10132;50.864;5.176;2024-03-25T10:04:53;12.20;99.90
19941;DHT22;10132;50.864;5.176;2024-03-25T10:06:53;12.40;99.90
19941;DHT22;10132;50.864;5.176;2024-03-25T10:08:54;12.50;99.90
19941;DHT22;10132;50.864;5.176;2024-03-25T10:10:56;12.50;99.90
19941;DHT22;10132;50.864;5.176;2024-03-25T10:12:57;12.70;99.90
19941;DHT22;10132;50.864;5.176;2024-03-25T10:14:59;12.90;99.90
19941;DHT22;10132;50.864;5.176;2024-03-25T10:17:02;12.90;99.90
19941;DHT22;10132;50.864;5.176;2024-03-25T10:19:03;12.80;99.90
19941;DHT22;10132;50.864;5.176;2024-03-25T10:21:04;12.80;99.90
19941;DHT22;10132;50.864;5.176;2024-03-25T10:23:05;13.00;99.90
19941;DHT22;10132;50.864;5.176;2024-03-25T10:25:06;13.20;99.90
19941;DHT22;10132;50.864;5.176;2024-03-25T10:27:11;13.30;99.90
19941;DHT22;10132;50.864;5.176;2024-03-25T10:29:12;13.40;99.90
19941;DHT22;10132;50.864;5.176;2024-03-25T10:31:17;13.50;99.90
19941;DHT22;10132;50.864;5.176;2024-03-25T10:33:20;13.50;99.90
19941;DHT22;10132;50.864;5.176;2024-03-25T10:35:21;13.70;99.90
19941;DHT22;10132;50.864;5.176;2024-03-25T10:37:25;14.00;99.90
19941;DHT22;10132;50.864;5.176;2024-03-25T10:39:27;14.10;99.90
19941;DHT22;10132;50.864;5.176;2024-03-25T10:41:31;14.10;99.90
19941;DHT22;10132;50.864;5.176;2024-03-25T10:43:34;13.90;99.90
19941;DHT22;10132;50.864;5.176;2024-03-25T10:45:40;13.90;99.90
19941;DHT22;10132;50.864;5.176;2024-03-25T10:47:42;14.10;99.90
19941;DHT22;10132;50.864;5.176;2024-03-25T10:49:48;14.30;99.90
19941;DHT22;10132;50.864;5.176;2024-03-25T10:51:50;14.40;99.90
19941;DHT22;10132;50.864;5.176;2024-03-25T10:53:52;14.40;99.90
19941;DHT22;10132;50.864;5.176;2024-03-25T10:55:54;14.40;99.90
19941;DHT22;10132;50.864;5.176;2024-03-25T10:57:56;14.50;99.90
19941;DHT22;10132;50.864;5.176;2024-03-25T10:59:57;14.50;99.90
19941;DHT22;10132;50.864;5.176;2024-03-25T11:01:59;14.40;99.90
19941;DHT22;10132;50.864;5.176;2024-03-25T11:04:00;14.10;99.90
19941;DHT22;10132;50.864;5.176;2024-03-25T11:06:03;13.80;99.90
19941;DHT22;10132;50.864;5.176;2024-03-25T11:08:10;14.00;99.90
19941;DHT22;10132;50.864;5.176;2024-03-25T11:10:12;14.30;99.90
19941;DHT22;10132;50.864;5.176;2024-03-25T11:12:13;14.60;99.90
19941;DHT22;10132;50.864;5.176;2024-03-25T11:14:15;14.90;99.90
19941;DHT22;10132;50.864;5.176;2024-03-25T11:16:28;14.90;99.90
19941;DHT22;10132;50.864;5.176;2024-03-25T11:18:29;14.70;99.90
19941;DHT22;10132;50.864;5.176;2024-03-25T11:20:30;15.10;99.90
19941;DHT22;10132;50.864;5.176;2024-03-25T11:22:33;15.00;99.90
19941;DHT22;10132;50.864;5.176;2024-03-25T11:24:34;15.00;99.90
19941;DHT22;10132;50.864;5.176;2024-03-25T11:26:40;15.40;99.90
19941;DHT22;10132;50.864;5.176;2024-03-25T11:28:42;16.00;99.90
19941;DHT22;10132;50.864;5.176;2024-03-25T11:30:43;16.10;99.90
19941;DHT22;10132;50.864;5.176;2024-03-25T11:32:45;15.80;99.60
19941;DHT22;10132;50.864;5.176;2024-03-25T11:34:52;15.40;99.80
19941;DHT22;10132;50.864;5.176;2024-03-25T11:36:52;14.60;99.70
19941;DHT22;10132;50.864;5.176;2024-03-25T11:39:00;14.40;99.90
19941;DHT22;10132;50.864;5.176;2024-03-25T11:41:03;14.30;99.90
19941;DHT22;10132;50.864;5.176;2024-03-25T11:43:04;13.90;99.90
19941;DHT22;10132;50.864;5.176;2024-03-25T11:45:06;13.70;99.90
19941;DHT22;10132;50.864;5.176;2024-03-25T11:47:07;14.10;98.70
19941;DHT22;10132;50.864;5.176;2024-03-25T11:49:12;14.90;99.90
19941;DHT22;10132;50.864;5.176;2024-03-25T11:51:16;15.50;61.20
19941;DHT22;10132;50.864;5.176;2024-03-25T11:53:17;15.70;1.00
19941;DHT22;10132;50.864;5.176;2024-03-25T11:55:19;15.50;1.00
19941;DHT22;10132;50.864;5.176;2024-03-25T11:57:21;15.60;1.00
19941;DHT22;10132;50.864;5.176;2024-03-25T11:59:21;16.00;8.70
19941;DHT22;10132;50.864;5.176;2024-03-25T12:01:23;16.10;52.00
19941;DHT22;10132;50.864;5.176;2024-03-25T12:03:24;16.20;1.00
19941;DHT22;10132;50.864;5.176;2024-03-25T12:05:25;15.80;1.00
19941;DHT22;10132;50.864;5.176;2024-03-25T12:07:26;15.40;1.00
19941;DHT22;10132;50.864;5.176;2024-03-25T12:09:27;15.50;1.00
19941;DHT22;10132;50.864;5.176;2024-03-25T12:11:48;15.40;1.00
19941;DHT22;10132;50.864;5.176;2024-03-25T12:13:49;14.50;1.00
19941;DHT22;10132;50.864;5.176;2024-03-25T12:15:50;14.50;78.90
19941;DHT22;10132;50.864;5.176;2024-03-25T12:17:51;15.00;19.80
19941;DHT22;10132;50.864;5.176;2024-03-25T12:19:59;15.50;34.30
19941;DHT22;10132;50.864;5.176;2024-03-25T12:22:02;16.30;15.00
19941;DHT22;10132;50.864;5.176;2024-03-25T12:24:03;16.90;1.00
19941;DHT22;10132;50.864;5.176;2024-03-25T12:26:05;17.50;4.60
19941;DHT22;10132;50.864;5.176;2024-03-25T12:28:10;18.20;64.10
19941;DHT22;10132;50.864;5.176;2024-03-25T12:30:11;18.40;1.00
19941;DHT22;10132;50.864;5.176;2024-03-25T12:32:12;18.00;93.00
19941;DHT22;10132;50.864;5.176;2024-03-25T12:34:13;17.30;42.30
19941;DHT22;10132;50.864;5.176;2024-03-25T12:36:14;16.30;1.00
19941;DHT22;10132;50.864;5.176;2024-03-25T12:38:23;15.60;99.90
19941;DHT22;10132;50.864;5.176;2024-03-25T12:40:28;15.40;1.00
19941;DHT22;10132;50.864;5.176;2024-03-25T12:42:30;16.00;1.00
19941;DHT22;10132;50.864;5.176;2024-03-25T12:44:32;16.20;1.00
19941;DHT22;10132;50.864;5.176;2024-03-25T12:46:33;16.20;11.30
19941;DHT22;10132;50.864;5.176;2024-03-25T12:48:34;16.30;1.00
19941;DHT22;10132;50.864;5.176;2024-03-25T12:50:35;16.70;1.00
19941;DHT22;10132;50.864;5.176;2024-03-25T12:52:36;17.30;1.00
19941;DHT22;10132;50.864;5.176;2024-03-25T12:54:37;17.70;1.00
19941;DHT22;10132;50.864;5.176;2024-03-25T12:56:38;18.00;2.40
19941;DHT22;10132;50.864;5.176;2024-03-25T12:58:39;17.30;1.00